createdAt,value
2023-02-15T00:00:28.977Z,97.68
2023-02-15T00:02:55.856Z,96.22
2023-02-15T00:05:22.735Z,97.56
2023-02-15T00:07:49.587Z,95.81
2023-02-15T00:10:17.785Z,96.84
2023-02-15T00:12:46.780Z,96.46
2023-02-15T00:15:16.214Z,97.50
2023-02-15T00:17:45.442Z,97.08
2023-02-15T00:20:14.951Z,96.17
2023-02-15T00:22:44.273Z,97.01
2023-02-15T00:25:13.441Z,97.79
2023-02-15T00:27:40.364Z,97.66
2023-02-15T00:30:08.154Z,97.68
2023-02-15T00:32:39.636Z,96.30
2023-02-15T00:35:10.225Z,97.00
2023-02-15T00:37:37.120Z,97.85
2023-02-15T00:40:07.385Z,97.84
2023-02-15T00:42:34.354Z,97.20
2023-02-15T00:45:01.209Z,98.23
2023-02-15T00:47:28.169Z,98.70
2023-02-15T00:49:55.085Z,97.75
2023-02-15T00:52:22.011Z,97.54
2023-02-15T00:54:48.924Z,97.49
2023-02-15T00:57:15.854Z,97.32
2023-02-15T00:59:42.710Z,97.08
2023-02-15T01:02:09.680Z,96.48
2023-02-15T01:04:39.014Z,97.54
2023-02-15T01:07:05.963Z,98.92
2023-02-15T01:09:32.807Z,97.37
2023-02-15T01:12:01.987Z,98.09
2023-02-15T01:14:35.986Z,98.69
2023-02-15T01:17:05.868Z,99.04
2023-02-15T01:19:36.261Z,97.99
2023-02-15T01:22:05.483Z,99.11
2023-02-15T01:24:32.861Z,99.78
2023-02-15T01:27:02.039Z,99.23
2023-02-15T01:29:28.960Z,99.90
2023-02-15T01:31:56.036Z,99.27
2023-02-15T01:34:22.977Z,100.00
2023-02-15T01:36:49.875Z,99.87
2023-02-15T01:39:19.303Z,99.69
2023-02-15T01:41:49.116Z,99.81
2023-02-15T01:44:44.043Z,99.06
2023-02-15T01:47:20.792Z,100.00
2023-02-15T01:49:48.919Z,99.71
2023-02-15T01:52:19.922Z,100.00
2023-02-15T01:54:48.820Z,98.44
2023-02-15T01:57:22.500Z,98.25
2023-02-15T01:59:54.960Z,97.66
2023-02-15T02:02:25.953Z,97.58
2023-02-15T02:05:14.285Z,97.70
2023-02-15T02:07:46.130Z,98.90
2023-02-15T02:10:19.761Z,98.83
2023-02-15T02:12:54.022Z,98.54
2023-02-15T02:15:29.508Z,98.84
2023-02-15T02:18:43.698Z,97.03
2023-02-15T02:21:59.079Z,99.19
2023-02-15T02:24:53.664Z,100.00
2023-02-15T02:27:41.020Z,98.85
2023-02-15T02:30:44.657Z,98.67
2023-02-15T02:33:35.985Z,99.60
2023-02-15T02:36:51.194Z,98.19
2023-02-15T02:39:45.924Z,98.41
2023-02-15T02:42:25.054Z,98.20
2023-02-15T02:45:00.644Z,97.65
2023-02-15T02:47:52.788Z,97.33
2023-02-15T02:50:29.142Z,95.80
2023-02-15T02:53:02.154Z,96.27
2023-02-15T02:55:43.272Z,96.33
2023-02-15T02:58:34.831Z,96.17
2023-02-15T03:01:15.936Z,96.50
2023-02-15T03:03:52.048Z,98.00
2023-02-15T03:06:34.151Z,98.39
2023-02-15T03:09:42.878Z,96.83
2023-02-15T03:12:20.324Z,97.66
2023-02-15T03:14:53.152Z,98.66
2023-02-15T03:17:28.517Z,98.51
2023-02-15T03:20:03.562Z,98.05
2023-02-15T03:22:47.601Z,98.06
2023-02-15T03:25:28.003Z,97.61
2023-02-15T03:28:02.514Z,96.29
2023-02-15T03:30:34.596Z,97.00
2023-02-15T03:33:08.384Z,96.65
2023-02-15T03:36:00.603Z,97.27
2023-02-15T03:38:41.788Z,96.96
2023-02-15T03:41:11.416Z,96.55
2023-02-15T03:44:00.704Z,96.80
2023-02-15T03:47:04.963Z,97.38
2023-02-15T03:49:53.303Z,97.47
2023-02-15T03:52:24.724Z,98.05
2023-02-15T03:54:52.406Z,99.41
2023-02-15T03:57:45.846Z,99.22
2023-02-15T04:00:43.152Z,100.00
2023-02-15T04:03:16.300Z,100.00
2023-02-15T04:05:45.121Z,99.24
2023-02-15T04:08:13.543Z,98.56
2023-02-15T04:10:57.172Z,97.36
2023-02-15T04:13:31.086Z,98.42
2023-02-15T04:16:07.977Z,97.09
2023-02-15T04:19:00.622Z,97.92
2023-02-15T04:21:50.303Z,96.81
2023-02-15T04:24:39.014Z,97.01
2023-02-15T04:27:11.222Z,97.59
2023-02-15T04:29:38.063Z,97.13
2023-02-15T04:32:05.257Z,97.79
2023-02-15T04:34:32.200Z,97.88
2023-02-15T04:36:59.131Z,98.02
2023-02-15T04:39:28.574Z,98.17
2023-02-15T04:41:57.833Z,99.31
2023-02-15T04:44:25.349Z,98.08
2023-02-15T04:46:52.252Z,98.97
2023-02-15T04:49:22.207Z,99.61
2023-02-15T04:51:51.672Z,98.02
2023-02-15T04:54:21.116Z,96.31
2023-02-15T04:56:48.065Z,96.15
2023-02-15T04:59:17.029Z,95.70
2023-02-15T05:01:46.533Z,96.68
2023-02-15T05:04:21.195Z,96.83
2023-02-15T05:06:48.271Z,95.83
2023-02-15T05:09:17.725Z,95.05
2023-02-15T05:11:47.623Z,95.74
2023-02-15T05:14:17.846Z,95.86
2023-02-15T05:16:44.702Z,95.51
2023-02-15T05:19:11.613Z,95.85
2023-02-15T05:21:41.580Z,95.59
2023-02-15T05:24:34.136Z,96.14
2023-02-15T05:27:22.136Z,95.64
2023-02-15T05:29:49.281Z,95.91
2023-02-15T05:32:18.922Z,97.07
2023-02-15T05:34:45.806Z,98.09
2023-02-15T05:37:12.742Z,99.51
2023-02-15T05:39:39.587Z,98.55
2023-02-15T05:42:06.996Z,98.52
2023-02-15T05:44:36.021Z,98.12
2023-02-15T05:47:03.980Z,98.34
2023-02-15T05:49:33.372Z,97.50
2023-02-15T05:52:03.926Z,97.02
2023-02-15T05:54:30.867Z,97.64
2023-02-15T05:56:57.869Z,97.84
2023-02-15T05:59:24.806Z,98.72
2023-02-15T06:01:51.785Z,99.13
2023-02-15T06:04:21.109Z,97.79
2023-02-15T06:06:48.062Z,99.04
2023-02-15T06:09:15.343Z,99.29
2023-02-15T06:11:42.243Z,99.71
2023-02-15T06:14:11.619Z,100.00
2023-02-15T06:16:43.065Z,99.31
2023-02-15T06:19:14.816Z,99.97
2023-02-15T06:21:41.708Z,99.56
2023-02-15T06:24:11.131Z,98.76
2023-02-15T06:26:37.978Z,97.36
2023-02-15T06:29:07.314Z,97.70
2023-02-15T06:31:34.392Z,97.36
2023-02-15T06:34:03.937Z,99.28
2023-02-15T06:36:36.393Z,100.00
2023-02-15T06:39:04.140Z,99.89
2023-02-15T06:41:33.329Z,99.61
2023-02-15T06:44:00.312Z,99.87
2023-02-15T06:46:27.582Z,99.37
2023-02-15T06:48:54.499Z,98.71
2023-02-15T06:51:23.768Z,99.93
2023-02-15T06:53:50.682Z,99.82
2023-02-15T06:56:19.730Z,98.76
2023-02-15T06:58:47.004Z,99.11
2023-02-15T07:01:16.896Z,99.81
2023-02-15T07:03:43.781Z,99.33
2023-02-15T07:06:15.454Z,98.24
2023-02-15T07:08:44.936Z,99.29
2023-02-15T07:11:30.312Z,99.76
2023-02-15T07:13:57.727Z,99.75
2023-02-15T07:16:26.864Z,99.82
2023-02-15T07:18:53.813Z,98.32
2023-02-15T07:21:20.723Z,98.84
2023-02-15T07:23:47.602Z,99.41
2023-02-15T07:26:16.788Z,99.02
2023-02-15T07:28:43.763Z,98.57
2023-02-15T07:31:13.003Z,98.89
2023-02-15T07:33:42.501Z,98.47
2023-02-15T07:36:13.147Z,99.70
2023-02-15T07:38:42.359Z,97.55
2023-02-15T07:41:12.117Z,98.31
2023-02-15T07:43:42.222Z,96.91
2023-02-15T07:46:13.405Z,97.10
2023-02-15T07:48:41.878Z,96.46
2023-02-15T07:51:11.717Z,98.59
2023-02-15T07:53:39.742Z,97.37
2023-02-15T07:56:11.806Z,95.58
2023-02-15T07:58:53.689Z,95.18
2023-02-15T08:01:30.899Z,93.54
2023-02-15T08:04:00.735Z,97.50
2023-02-15T08:06:31.804Z,97.49
2023-02-15T08:08:58.856Z,95.81
2023-02-15T08:11:30.281Z,95.38
2023-02-15T08:14:16.173Z,95.81
2023-02-15T08:17:00.385Z,95.06
2023-02-15T08:19:35.509Z,96.50
2023-02-15T08:22:13.532Z,95.53
2023-02-15T08:24:40.695Z,94.45
2023-02-15T08:27:12.146Z,94.13
2023-02-15T08:29:43.088Z,94.07
2023-02-15T08:32:13.221Z,92.28
2023-02-15T08:34:44.975Z,92.16
2023-02-15T08:37:11.937Z,91.53
2023-02-15T08:39:43.787Z,90.98
2023-02-15T08:42:10.692Z,89.21
2023-02-15T08:44:37.616Z,89.63
2023-02-15T08:47:07.071Z,89.87
2023-02-15T08:49:33.958Z,88.69
2023-02-15T08:52:05.332Z,89.61
2023-02-15T08:54:32.277Z,88.96
2023-02-15T08:57:01.428Z,87.55
2023-02-15T08:59:28.415Z,85.58
2023-02-15T09:01:56.219Z,87.31
2023-02-15T09:04:25.750Z,87.30
2023-02-15T09:06:53.255Z,86.62
2023-02-15T09:09:20.803Z,86.68
2023-02-15T09:11:54.566Z,87.01
2023-02-15T09:14:25.936Z,86.71
2023-02-15T09:16:56.315Z,86.57
2023-02-15T09:19:24.688Z,85.69
2023-02-15T09:21:53.839Z,85.88
2023-02-15T09:24:20.818Z,86.00
2023-02-15T09:26:52.484Z,85.27
2023-02-15T09:29:26.411Z,84.16
2023-02-15T09:31:54.594Z,84.36
2023-02-15T09:34:24.897Z,83.89
2023-02-15T09:36:53.078Z,85.28
2023-02-15T09:39:24.878Z,85.10
2023-02-15T09:42:35.787Z,86.58
2023-02-15T09:45:24.131Z,85.50
2023-02-15T09:48:30.621Z,86.79
2023-02-15T09:52:08.862Z,87.71
2023-02-15T09:54:53.475Z,86.76
2023-02-15T09:57:39.279Z,86.12
2023-02-15T10:00:39.506Z,86.00
2023-02-15T10:03:40.070Z,87.26
2023-02-15T10:06:32.302Z,87.53
2023-02-15T10:09:26.837Z,86.42
2023-02-15T10:12:02.458Z,84.78
2023-02-15T10:14:50.431Z,80.13
2023-02-15T10:17:41.636Z,79.61
2023-02-15T10:20:30.020Z,78.09
2023-02-15T10:23:08.957Z,75.83
2023-02-15T10:25:44.527Z,76.79
2023-02-15T10:28:52.656Z,76.70
2023-02-15T10:31:46.359Z,78.03
2023-02-15T10:34:36.814Z,78.83
2023-02-15T10:37:32.351Z,75.79
2023-02-15T10:40:23.432Z,74.21
2023-02-15T10:43:05.296Z,73.74
2023-02-15T10:45:53.532Z,76.07
2023-02-15T10:48:48.442Z,73.56
2023-02-15T10:51:51.414Z,71.03
2023-02-15T10:55:00.636Z,72.47
2023-02-15T10:58:03.475Z,74.17
2023-02-15T11:00:46.819Z,71.78
2023-02-15T11:03:43.780Z,69.35
2023-02-15T11:06:15.853Z,69.01
2023-02-15T11:08:49.140Z,67.54
2023-02-15T11:11:36.081Z,64.96
2023-02-15T11:14:15.937Z,57.89
2023-02-15T11:16:50.060Z,53.66
2023-02-15T11:19:57.937Z,49.32
2023-02-15T11:22:29.509Z,46.62
2023-02-15T11:25:01.360Z,42.60
2023-02-15T11:27:34.189Z,39.58
2023-02-15T11:30:15.900Z,37.25
2023-02-15T11:32:53.875Z,36.41
2023-02-15T11:35:45.180Z,40.24
2023-02-15T11:38:20.918Z,38.56
2023-02-15T11:41:04.816Z,35.05
2023-02-15T11:43:45.761Z,32.34
2023-02-15T11:46:14.486Z,31.93
2023-02-15T11:48:46.381Z,34.30
2023-02-15T11:51:19.072Z,34.72
2023-02-15T11:53:49.964Z,31.92
2023-02-15T11:56:22.619Z,30.96
2023-02-15T11:59:00.237Z,30.82
2023-02-15T12:01:46.023Z,28.50
2023-02-15T12:04:30.364Z,28.10
2023-02-15T12:07:16.237Z,28.72
2023-02-15T12:10:21.022Z,29.67
2023-02-15T12:12:48.237Z,31.18
2023-02-15T12:15:17.767Z,31.97
2023-02-15T12:17:54.437Z,32.65
2023-02-15T12:20:21.279Z,32.70
2023-02-15T12:22:52.480Z,29.95
2023-02-15T12:25:38.381Z,27.46
2023-02-15T12:28:26.708Z,29.28
2023-02-15T12:30:58.417Z,31.89
2023-02-15T12:33:32.288Z,29.98
2023-02-15T12:36:21.943Z,28.11
2023-02-15T12:39:15.032Z,27.75
2023-02-15T12:42:25.383Z,27.71
2023-02-15T12:45:02.238Z,30.86
2023-02-15T12:47:34.058Z,28.27
2023-02-15T12:50:24.353Z,28.23
2023-02-15T12:53:03.584Z,27.66
2023-02-15T12:55:31.812Z,28.23
2023-02-15T12:58:24.274Z,27.45
2023-02-15T13:01:04.292Z,28.37
2023-02-15T13:03:31.618Z,28.32
2023-02-15T13:06:02.167Z,27.59
2023-02-15T13:08:34.913Z,25.61
2023-02-15T13:11:11.765Z,26.92
2023-02-15T13:14:03.838Z,30.80
2023-02-15T13:16:38.582Z,31.89
2023-02-15T13:19:22.749Z,29.61
2023-02-15T13:21:53.078Z,30.40
2023-02-15T13:24:33.568Z,31.76
2023-02-15T13:27:14.600Z,29.92
2023-02-15T13:29:53.414Z,29.78
2023-02-15T13:32:39.122Z,28.47
2023-02-15T13:35:09.637Z,30.57
2023-02-15T13:38:04.197Z,29.08
2023-02-15T13:40:57.241Z,28.47
2023-02-15T13:43:35.360Z,28.51
2023-02-15T13:46:20.892Z,29.91
2023-02-15T13:49:14.238Z,31.56
2023-02-15T13:52:00.125Z,31.93
2023-02-15T13:54:32.049Z,32.69
2023-02-15T13:57:28.010Z,33.12
2023-02-15T14:00:12.807Z,34.61
2023-02-15T14:03:00.763Z,36.90
2023-02-15T14:05:33.737Z,37.95
2023-02-15T14:08:11.567Z,37.59
2023-02-15T14:11:03.624Z,38.25
2023-02-15T14:13:45.667Z,37.62
2023-02-15T14:16:38.938Z,38.94
2023-02-15T14:19:23.002Z,39.12
2023-02-15T14:22:12.027Z,39.95
2023-02-15T14:25:22.800Z,42.43
2023-02-15T14:28:11.805Z,42.83
2023-02-15T14:30:42.443Z,45.05
2023-02-15T14:33:22.353Z,44.01
2023-02-15T14:35:49.793Z,41.89
2023-02-15T14:39:32.663Z,42.31
2023-02-15T14:42:14.944Z,44.65
2023-02-15T14:44:59.519Z,43.86
2023-02-15T14:47:41.068Z,45.15
2023-02-15T14:50:38.404Z,45.67
2023-02-15T14:53:36.861Z,47.58
2023-02-15T14:56:20.865Z,47.76
2023-02-15T14:58:53.393Z,48.46
2023-02-15T15:01:36.201Z,50.95
2023-02-15T15:04:14.506Z,52.47
2023-02-15T15:07:08.926Z,53.62
2023-02-15T15:09:41.884Z,56.64
2023-02-15T15:12:27.021Z,57.24
2023-02-15T15:14:55.223Z,58.26
2023-02-15T15:17:57.269Z,58.85
2023-02-15T15:20:26.868Z,58.35
2023-02-15T15:23:16.524Z,58.63
2023-02-15T15:25:51.006Z,58.35
2023-02-15T15:28:59.717Z,57.21
2023-02-15T15:31:51.341Z,58.74
2023-02-15T15:35:02.376Z,60.17
2023-02-15T15:37:41.177Z,62.53
2023-02-15T15:40:27.674Z,63.32
2023-02-15T15:43:34.975Z,63.45
2023-02-15T15:46:13.001Z,65.20
2023-02-15T15:48:44.933Z,68.06
2023-02-15T15:51:37.792Z,68.51
2023-02-15T15:54:07.579Z,70.87
2023-02-15T15:56:36.924Z,72.99
2023-02-15T15:59:13.490Z,73.40
2023-02-15T16:01:48.422Z,74.44
2023-02-15T16:04:26.220Z,74.29
2023-02-15T16:06:53.837Z,74.88
2023-02-15T16:09:25.342Z,75.32
2023-02-15T16:12:03.518Z,74.44
2023-02-15T16:14:41.812Z,75.38
2023-02-15T16:17:21.804Z,76.55
2023-02-15T16:19:51.382Z,76.69
2023-02-15T16:22:27.585Z,77.79
2023-02-15T16:25:31.378Z,76.58
2023-02-15T16:28:07.074Z,75.96
2023-02-15T16:30:40.488Z,77.23
2023-02-15T16:33:16.950Z,78.36
2023-02-15T16:36:04.019Z,78.27
2023-02-15T16:38:59.664Z,78.40
2023-02-15T16:41:31.083Z,78.12
2023-02-15T16:44:12.337Z,77.98
2023-02-15T16:46:45.061Z,79.06
2023-02-15T16:49:30.086Z,78.04
2023-02-15T16:52:03.089Z,77.94
2023-02-15T16:54:34.738Z,78.43
2023-02-15T16:57:02.634Z,78.67
2023-02-15T16:59:40.541Z,78.40
2023-02-15T17:02:32.001Z,78.63
2023-02-15T17:05:13.000Z,80.20
2023-02-15T17:07:42.388Z,80.36
2023-02-15T17:10:37.531Z,80.85
2023-02-15T17:13:15.427Z,81.11
2023-02-15T17:16:06.878Z,80.76
2023-02-15T17:18:47.229Z,81.66
2023-02-15T17:21:32.774Z,81.86
2023-02-15T17:24:07.282Z,81.76
2023-02-15T17:26:37.647Z,82.43
2023-02-15T17:29:42.672Z,81.99
2023-02-15T17:32:28.069Z,81.21
2023-02-15T17:35:04.005Z,82.29
2023-02-15T17:37:36.755Z,82.13
2023-02-15T17:40:28.351Z,81.61
2023-02-15T17:42:58.699Z,82.05
2023-02-15T17:45:41.896Z,82.64
2023-02-15T17:48:35.887Z,83.88
2023-02-15T17:51:06.652Z,83.88
2023-02-15T17:53:34.765Z,83.69
2023-02-15T17:56:10.457Z,83.27
2023-02-15T17:58:40.548Z,83.72
2023-02-15T18:01:37.474Z,85.06
2023-02-15T18:04:23.920Z,83.99
2023-02-15T18:07:09.857Z,84.50
2023-02-15T18:09:59.848Z,85.70
2023-02-15T18:12:33.499Z,86.07
2023-02-15T18:15:01.683Z,86.16
2023-02-15T18:17:43.008Z,87.72
2023-02-15T18:20:28.427Z,88.04
2023-02-15T18:22:55.735Z,86.98
2023-02-15T18:25:25.509Z,86.23
2023-02-15T18:27:55.028Z,86.82
2023-02-15T18:30:25.578Z,86.21
2023-02-15T18:32:57.748Z,86.98
2023-02-15T18:35:33.742Z,86.95
2023-02-15T18:38:02.020Z,86.93
2023-02-15T18:40:31.440Z,87.45
2023-02-15T18:43:00.813Z,87.17
2023-02-15T18:45:33.055Z,87.38
2023-02-15T18:48:00.258Z,89.22
2023-02-15T18:50:33.377Z,89.46
2023-02-15T18:53:04.778Z,89.38
2023-02-15T18:55:37.328Z,89.76
2023-02-15T18:58:04.967Z,90.92
2023-02-15T19:00:34.749Z,90.50
2023-02-15T19:03:06.820Z,90.28
2023-02-15T19:05:34.265Z,90.07
2023-02-15T19:08:01.993Z,90.35
2023-02-15T19:10:34.453Z,91.70
2023-02-15T19:13:04.617Z,91.32
2023-02-15T19:15:31.711Z,91.22
2023-02-15T19:18:00.888Z,90.33
2023-02-15T19:20:42.911Z,90.83
2023-02-15T19:23:21.099Z,89.42
2023-02-15T19:25:49.719Z,90.19
2023-02-15T19:28:28.915Z,90.02
2023-02-15T19:30:55.899Z,89.36
2023-02-15T19:33:23.810Z,90.53
2023-02-15T19:35:56.322Z,89.58
2023-02-15T19:38:32.347Z,89.25
2023-02-15T19:41:11.496Z,88.97
2023-02-15T19:43:38.748Z,89.86
2023-02-15T19:46:05.992Z,90.04
2023-02-15T19:48:33.083Z,90.02
2023-02-15T19:51:03.744Z,89.50
2023-02-15T19:53:30.686Z,90.06
2023-02-15T19:56:00.925Z,90.50
2023-02-15T19:58:30.178Z,90.35
2023-02-15T20:00:57.074Z,90.57
2023-02-15T20:03:24.037Z,91.30
2023-02-15T20:05:50.975Z,90.97
2023-02-15T20:08:22.286Z,91.30
2023-02-15T20:10:50.202Z,90.91
2023-02-15T20:13:19.624Z,91.33
2023-02-15T20:15:51.791Z,91.19
2023-02-15T20:18:21.108Z,89.76
2023-02-15T20:20:56.213Z,90.57
2023-02-15T20:23:25.032Z,90.06
2023-02-15T20:25:54.270Z,90.02
2023-02-15T20:28:24.726Z,89.83
2023-02-15T20:30:52.564Z,89.55
2023-02-15T20:33:23.437Z,89.48
2023-02-15T20:35:51.333Z,90.45
2023-02-15T20:38:29.382Z,89.11
2023-02-15T20:41:17.699Z,90.18
2023-02-15T20:43:44.720Z,90.12
2023-02-15T20:46:11.803Z,89.80
2023-02-15T20:48:38.792Z,89.39
2023-02-15T20:51:09.336Z,90.24
2023-02-15T20:53:36.367Z,89.96
2023-02-15T20:56:03.725Z,89.53
2023-02-15T20:58:31.083Z,90.94
2023-02-15T21:00:59.399Z,91.00
2023-02-15T21:03:31.025Z,91.54
2023-02-15T21:06:01.847Z,90.79
2023-02-15T21:08:35.770Z,90.71
2023-02-15T21:11:07.856Z,91.62
2023-02-15T21:13:37.467Z,91.49
2023-02-15T21:16:04.644Z,90.32
2023-02-15T21:18:34.521Z,91.64
2023-02-15T21:21:06.364Z,89.93
2023-02-15T21:23:41.322Z,90.36
2023-02-15T21:26:19.821Z,89.20
2023-02-15T21:28:47.862Z,90.28
2023-02-15T21:31:26.428Z,90.62
2023-02-15T21:33:55.892Z,91.25
2023-02-15T21:36:25.139Z,90.12
2023-02-15T21:38:54.560Z,91.40
2023-02-15T21:41:42.429Z,90.72
2023-02-15T21:44:40.541Z,90.60
2023-02-15T21:47:47.093Z,89.20
2023-02-15T21:51:03.701Z,90.11
2023-02-15T21:53:37.327Z,90.08
2023-02-15T21:56:14.701Z,89.70
2023-02-15T21:58:41.666Z,89.51
2023-02-15T22:01:29.905Z,89.31
2023-02-15T22:03:58.722Z,89.66
2023-02-15T22:06:28.188Z,88.89
2023-02-15T22:08:55.077Z,88.50
2023-02-15T22:11:22.630Z,88.21
2023-02-15T22:13:50.724Z,87.95
2023-02-15T22:16:20.551Z,88.58
2023-02-15T22:18:48.173Z,89.40
2023-02-15T22:21:19.167Z,89.37
2023-02-15T22:23:47.148Z,88.67
2023-02-15T22:26:27.831Z,87.49
2023-02-15T22:29:01.882Z,87.05
2023-02-15T22:31:33.534Z,88.57
2023-02-15T22:34:02.899Z,87.80
2023-02-15T22:36:33.285Z,87.69
2023-02-15T22:39:00.204Z,87.22
2023-02-15T22:41:32.987Z,86.99
2023-02-15T22:44:00.214Z,87.30
2023-02-15T22:46:29.485Z,87.29
2023-02-15T22:48:58.394Z,86.59
2023-02-15T22:51:25.514Z,86.25
2023-02-15T22:53:54.551Z,87.02
2023-02-15T22:56:43.710Z,86.60
2023-02-15T22:59:24.526Z,87.13
2023-02-15T23:01:51.766Z,85.89
2023-02-15T23:04:22.337Z,86.48
2023-02-15T23:06:49.811Z,86.66
2023-02-15T23:09:17.078Z,86.08
2023-02-15T23:11:46.767Z,87.85
2023-02-15T23:14:36.246Z,87.53
2023-02-15T23:17:05.683Z,87.54
2023-02-15T23:19:35.221Z,87.15
2023-02-15T23:22:02.704Z,86.99
2023-02-15T23:24:34.531Z,87.95
2023-02-15T23:27:24.148Z,87.79
2023-02-15T23:29:53.551Z,88.59
2023-02-15T23:32:23.265Z,88.16
2023-02-15T23:34:53.314Z,88.32
2023-02-15T23:37:22.284Z,88.45
2023-02-15T23:40:10.136Z,87.14
2023-02-15T23:42:40.322Z,87.96
2023-02-15T23:45:22.758Z,88.03
2023-02-15T23:48:09.141Z,88.17
2023-02-15T23:50:37.433Z,88.87
2023-02-15T23:53:09.457Z,88.78
2023-02-15T23:55:41.416Z,88.37
2023-02-15T23:58:19.761Z,88.26
